Time;durP1;ratioP1;P1;durP2;ratioP2;P2;SDS_P1;SDS_P2;PMS_P1;PMS_P2;Temp;Humidity;BMP_temperature;BMP_pressure;BME280_temperature;BME280_humidity;BME280_pressure;Samples;Min_cycle;Max_cycle;Signal;HPM_P1;HPM_P2
2021/08/20 00:01:45;;;;;;;1.27;0.60;;;22.20;63.20;;;;;;2481774;54;21479;-85
2021/08/20 00:04:11;;;;;;;1.48;0.60;;;22.10;63.10;;;;;;2241051;55;20976;-90
2021/08/20 00:06:38;;;;;;;1.95;0.80;;;22.10;63.20;;;;;;2462683;55;21024;-87
2021/08/20 00:09:04;;;;;;;1.85;0.70;;;22.20;63.40;;;;;;2463246;55;21012;-87
2021/08/20 00:11:31;;;;;;;1.20;0.60;;;22.10;63.30;;;;;;2495239;54;21043;-85
2021/08/20 00:13:57;;;;;;;1.58;0.60;;;22.10;63.30;;;;;;2273909;55;21014;-87
2021/08/20 00:16:29;;;;;;;1.98;0.70;;;22.10;63.40;;;;;;2486709;55;20954;-88
2021/08/20 00:18:56;;;;;;;1.85;0.60;;;22.10;63.20;;;;;;2485373;55;21026;-83
2021/08/20 00:21:22;;;;;;;1.02;0.50;;;22.10;63.30;;;;;;2267443;55;20992;-86
2021/08/20 00:23:49;;;;;;;2.08;0.70;;;22.10;63.30;;;;;;2243476;55;21008;-87
2021/08/20 00:26:15;;;;;;;2.15;0.73;;;22.10;63.30;;;;;;2462504;55;21245;-88
2021/08/20 00:28:42;;;;;;;1.60;0.52;;;22.10;63.30;;;;;;2240221;55;22154;-88
2021/08/20 00:31:08;;;;;;;2.35;0.60;;;22.10;64.00;;;;;;2240986;55;21004;-88
2021/08/20 00:33:36;;;;;;;1.83;0.70;;;22.10;63.40;;;;;;2468126;55;22329;-87
2021/08/20 00:36:04;;;;;;;1.95;0.70;;;22.10;63.40;;;;;;2486523;55;20972;-88
2021/08/20 00:38:37;;;;;;;1.50;0.57;;;22.10;63.50;;;;;;2254284;55;21350;-85
2021/08/20 00:41:13;;;;;;;2.15;0.62;;;22.10;63.50;;;;;;2255726;55;20925;-87
2021/08/20 00:43:43;;;;;;;2.10;0.70;;;22.10;63.30;;;;;;2227236;55;21115;-89
2021/08/20 00:46:10;;;;;;;1.20;0.60;;;22.10;63.40;;;;;;2227033;55;20985;-90
2021/08/20 00:48:36;;;;;;;1.80;0.70;;;22.00;63.40;;;;;;2241559;55;21004;-88
2021/08/20 00:51:24;;;;;;;2.10;0.80;;;22.00;63.40;;;;;;2279291;55;20958;-89
2021/08/20 00:53:51;;;;;;;1.73;0.70;;;22.00;63.30;;;;;;2464640;55;20980;-89
2021/08/20 00:56:20;;;;;;;2.33;0.90;;;22.00;63.40;;;;;;2240933;55;21052;-90
2021/08/20 00:58:49;;;;;;;2.30;0.88;;;22.00;63.40;;;;;;2471978;55;21065;-86
2021/08/20 01:01:16;;;;;;;2.15;0.80;;;22.00;63.40;;;;;;2487459;54;20967;-86
2021/08/20 01:03:42;;;;;;;3.15;1.00;;;22.00;63.50;;;;;;2493198;55;21489;-85
2021/08/20 01:06:08;;;;;;;1.42;0.70;;;22.00;63.50;;;;;;2494091;55;20995;-88
2021/08/20 01:08:36;;;;;;;1.77;0.80;;;22.00;63.50;;;;;;2466667;55;21011;-87
2021/08/20 01:11:03;;;;;;;1.70;0.62;;;22.00;63.60;;;;;;2482282;55;21014;-84
2021/08/20 01:13:34;;;;;;;1.90;0.62;;;22.00;63.60;;;;;;2474357;55;21025;-88
2021/08/20 01:16:01;;;;;;;1.55;0.70;;;22.00;63.60;;;;;;2464470;55;20969;-88
2021/08/20 01:18:29;;;;;;;1.67;0.70;;;22.00;63.70;;;;;;2271519;55;20918;-87
2021/08/20 01:21:00;;;;;;;2.10;0.80;;;21.90;63.60;;;;;;2492069;55;21046;-85
2021/08/20 01:23:26;;;;;;;1.73;0.70;;;22.00;64.20;;;;;;2265130;55;21872;-88
2021/08/20 01:25:53;;;;;;;1.85;0.77;;;22.00;63.90;;;;;;2482858;55;20948;-85
2021/08/20 01:28:21;;;;;;;1.80;0.70;;;22.00;63.90;;;;;;2243140;55;20964;-87
2021/08/20 01:30:48;;;;;;;2.17;0.80;;;21.90;63.80;;;;;;2472923;55;21031;-86
2021/08/20 01:33:15;;;;;;;2.37;0.90;;;22.00;63.90;;;;;;2249321;55;20981;-87
2021/08/20 01:35:41;;;;;;;2.67;0.68;;;21.90;63.80;;;;;;2497929;55;21056;-87
2021/08/20 01:38:07;;;;;;;1.80;0.73;;;21.90;63.80;;;;;;2466412;55;21012;-86
2021/08/20 01:40:34;;;;;;;2.10;0.70;;;21.90;63.80;;;;;;2464257;55;21017;-87
2021/08/20 01:43:00;;;;;;;2.20;0.80;;;21.90;63.80;;;;;;2463179;55;21028;-85
2021/08/20 01:45:26;;;;;;;2.30;0.80;;;21.90;63.80;;;;;;2463264;55;21030;-85
2021/08/20 01:47:52;;;;;;;1.62;0.70;;;21.90;63.80;;;;;;2462662;55;21692;-84
2021/08/20 01:50:19;;;;;;;1.37;0.73;;;21.90;63.80;;;;;;2477589;54;20970;-87
2021/08/20 01:52:45;;;;;;;2.00;0.70;;;21.90;63.90;;;;;;2492596;55;20977;-85
2021/08/20 01:55:12;;;;;;;1.67;0.75;;;21.90;63.90;;;;;;2263282;55;21063;-88
2021/08/20 01:57:40;;;;;;;1.90;0.62;;;21.90;63.90;;;;;;2486696;55;21008;-87
2021/08/20 02:00:07;;;;;;;2.00;0.95;;;21.90;64.00;;;;;;2257033;55;21111;-89
2021/08/20 02:02:33;;;;;;;2.72;0.80;;;21.90;64.10;;;;;;2272687;55;21053;-90
2021/08/20 02:05:00;;;;;;;1.30;0.50;;;21.90;64.20;;;;;;2490201;55;20947;-85
2021/08/20 02:07:26;;;;;;;1.33;0.70;;;21.90;64.20;;;;;;2470106;55;21068;-87
2021/08/20 02:09:53;;;;;;;1.95;0.77;;;21.90;64.20;;;;;;2242602;55;21031;-90
2021/08/20 02:12:19;;;;;;;1.60;0.70;;;21.90;64.30;;;;;;2472336;55;21143;-89
2021/08/20 02:14:46;;;;;;;2.12;0.73;;;21.90;64.40;;;;;;2266501;55;21432;-87
2021/08/20 02:17:12;;;;;;;1.55;0.60;;;21.90;64.40;;;;;;2491422;55;20966;-86
2021/08/20 02:19:38;;;;;;;1.27;0.55;;;21.90;64.50;;;;;;2466177;55;21024;-90
2021/08/20 02:22:04;;;;;;;1.17;0.50;;;21.80;64.30;;;;;;2474001;55;21022;-86
2021/08/20 02:24:31;;;;;;;1.50;0.60;;;21.90;64.50;;;;;;2493689;55;21133;-86
2021/08/20 02:26:58;;;;;;;1.30;0.52;;;21.80;64.30;;;;;;2478890;55;20948;-85
2021/08/20 02:29:24;;;;;;;2.33;1.20;;;21.80;64.30;;;;;;2465402;55;21665;-88
2021/08/20 02:31:52;;;;;;;2.17;0.70;;;21.90;64.50;;;;;;2278279;55;21021;-88
2021/08/20 02:34:18;;;;;;;1.92;0.80;;;21.90;64.50;;;;;;2494218;55;21022;-89
2021/08/20 02:36:45;;;;;;;1.85;0.70;;;21.80;64.30;;;;;;2473430;55;20999;-87
2021/08/20 02:39:11;;;;;;;2.33;0.60;;;21.90;64.50;;;;;;2491381;55;21036;-88
2021/08/20 02:41:37;;;;;;;1.77;0.75;;;21.80;64.30;;;;;;2482807;55;21033;-86
2021/08/20 02:44:03;;;;;;;1.60;0.70;;;21.80;64.40;;;;;;2279459;55;21034;-90
2021/08/20 02:46:30;;;;;;;1.73;0.80;;;21.80;64.50;;;;;;2495678;55;21030;-89
2021/08/20 02:48:57;;;;;;;1.87;0.93;;;21.80;64.50;;;;;;2248559;55;21035;-86
2021/08/20 02:51:23;;;;;;;1.58;0.73;;;21.80;64.50;;;;;;2472233;55;22120;-84
2021/08/20 02:53:49;;;;;;;1.12;0.50;;;21.80;64.50;;;;;;2256482;55;20976;-87
2021/08/20 02:56:15;;;;;;;1.60;0.70;;;21.80;64.50;;;;;;2277636;55;20990;-90
2021/08/20 02:58:41;;;;;;;1.75;0.65;;;21.80;64.50;;;;;;2467544;55;20976;-89
2021/08/20 03:01:08;;;;;;;0.90;0.50;;;21.80;64.50;;;;;;2274756;55;21019;-90
2021/08/20 03:03:34;;;;;;;2.00;0.82;;;21.80;64.50;;;;;;2244370;55;21018;-90
2021/08/20 03:06:01;;;;;;;1.27;0.60;;;21.80;64.50;;;;;;2241774;55;21866;-90
2021/08/20 03:08:27;;;;;;;1.62;0.70;;;21.70;64.40;;;;;;2241781;55;20952;-89
2021/08/20 03:10:53;;;;;;;1.80;0.70;;;21.80;64.50;;;;;;2490994;54;21065;-89
2021/08/20 03:13:20;;;;;;;1.87;0.80;;;21.80;64.60;;;;;;2242511;55;21000;-90
2021/08/20 03:15:46;;;;;;;1.70;0.70;;;21.80;64.60;;;;;;2264601;55;22016;-89
2021/08/20 03:18:13;;;;;;;2.40;0.80;;;21.80;64.60;;;;;;2275332;55;21006;-88
2021/08/20 03:20:39;;;;;;;1.17;0.52;;;21.80;64.60;;;;;;2485479;55;21013;-86
2021/08/20 03:23:05;;;;;;;2.47;0.80;;;21.80;64.70;;;;;;2484191;55;21023;-89
2021/08/20 03:25:31;;;;;;;2.15;0.82;;;21.70;64.60;;;;;;2484987;55;21065;-89
2021/08/20 03:27:58;;;;;;;1.65;0.80;;;21.80;64.70;;;;;;2484943;55;22195;-88
2021/08/20 03:30:24;;;;;;;1.60;0.70;;;21.70;64.60;;;;;;2497230;55;20978;-88
2021/08/20 03:32:50;;;;;;;1.98;0.80;;;21.70;64.70;;;;;;2486250;55;20960;-87
2021/08/20 03:35:17;;;;;;;1.90;0.85;;;21.70;64.70;;;;;;2269904;55;21581;-89
2021/08/20 03:37:43;;;;;;;1.75;0.70;;;21.70;64.70;;;;;;2244486;55;20948;-90
2021/08/20 03:40:09;;;;;;;1.77;0.80;;;21.70;64.70;;;;;;2496831;55;21786;-88
2021/08/20 03:42:36;;;;;;;2.17;1.05;;;21.70;64.80;;;;;;2471941;55;21069;-87
2021/08/20 03:45:02;;;;;;;1.37;0.73;;;21.70;64.70;;;;;;2265107;55;21057;-89
2021/08/20 03:47:28;;;;;;;2.60;0.80;;;21.60;64.70;;;;;;2463964;55;20949;-88
2021/08/20 03:49:54;;;;;;;2.70;0.90;;;21.60;64.80;;;;;;2463748;55;20989;-89
2021/08/20 03:52:21;;;;;;;3.75;1.10;;;21.60;64.90;;;;;;2242859;55;20992;-87
2021/08/20 03:54:47;;;;;;;1.80;0.80;;;21.60;64.90;;;;;;2472774;55;20994;-86
2021/08/20 03:57:13;;;;;;;1.67;0.75;;;21.60;65.00;;;;;;2263065;55;21022;-88
2021/08/20 03:59:39;;;;;;;1.85;0.70;;;21.60;65.00;;;;;;2245298;55;20980;-89
2021/08/20 04:02:06;;;;;;;2.47;0.98;;;21.60;65.00;;;;;;2257586;55;21045;-88
2021/08/20 04:04:34;;;;;;;1.77;0.70;;;21.60;65.10;;;;;;2273297;55;21099;-88
2021/08/20 04:07:00;;;;;;;1.95;0.80;;;21.50;65.00;;;;;;2262337;55;21828;-90
2021/08/20 04:09:26;;;;;;;2.62;1.17;;;21.50;65.00;;;;;;2243876;55;21413;-90
2021/08/20 04:11:55;;;;;;;2.35;0.70;;;21.50;65.00;;;;;;2243775;55;21817;-89
2021/08/20 04:14:22;;;;;;;2.00;0.70;;;21.60;65.90;;;;;;2244295;55;20952;-89
2021/08/20 04:16:48;;;;;;;1.83;0.80;;;21.50;65.10;;;;;;2464855;55;21339;-88
2021/08/20 04:19:15;;;;;;;2.08;0.85;;;21.50;65.10;;;;;;2487232;55;21547;-87
2021/08/20 04:21:41;;;;;;;1.65;0.70;;;21.40;65.00;;;;;;2471036;55;22044;-88
2021/08/20 04:24:12;;;;;;;2.00;0.90;;;21.50;65.20;;;;;;2495518;55;21092;-85
2021/08/20 04:26:39;;;;;;;2.85;0.90;;;21.40;65.10;;;;;;2274001;55;21005;-89
2021/08/20 04:29:06;;;;;;;2.15;0.90;;;21.50;65.30;;;;;;2263832;55;21010;-88
2021/08/20 04:31:32;;;;;;;5.82;0.80;;;21.40;65.20;;;;;;2472341;54;21000;-88
2021/08/20 04:33:58;;;;;;;2.20;0.80;;;21.40;65.20;;;;;;2463214;55;21008;-87
2021/08/20 04:36:25;;;;;;;1.92;0.90;;;21.40;65.20;;;;;;2268745;55;20990;-88
2021/08/20 04:38:51;;;;;;;1.55;0.70;;;21.40;65.30;;;;;;2462333;55;21083;-84
2021/08/20 04:41:17;;;;;;;1.83;0.70;;;21.40;65.30;;;;;;2461435;55;21048;-88
2021/08/20 04:43:44;;;;;;;2.20;0.80;;;21.30;65.20;;;;;;2449041;55;20942;-86
2021/08/20 04:46:10;;;;;;;2.40;0.80;;;21.30;65.30;;;;;;2274810;55;21092;-89
2021/08/20 04:48:36;;;;;;;2.00;0.80;;;21.30;65.30;;;;;;2488552;55;21032;-90
2021/08/20 04:51:03;;;;;;;3.42;0.88;;;21.30;65.30;;;;;;2464446;55;20993;-89
2021/08/20 04:53:30;;;;;;;2.50;0.80;;;21.30;65.40;;;;;;2463920;55;20937;-89
2021/08/20 04:55:58;;;;;;;2.10;0.85;;;21.30;65.40;;;;;;2495039;55;21009;-89
2021/08/20 04:58:25;;;;;;;2.50;1.08;;;21.30;65.50;;;;;;2243071;55;20980;-89
2021/08/20 05:00:51;;;;;;;1.90;0.80;;;21.30;65.60;;;;;;2242553;55;20963;-85
2021/08/20 05:03:18;;;;;;;1.92;0.77;;;21.30;65.70;;;;;;2494060;55;21438;-89
2021/08/20 05:05:44;;;;;;;2.15;0.90;;;21.30;65.80;;;;;;2485148;55;20986;-89
2021/08/20 05:08:11;;;;;;;2.33;1.05;;;21.20;65.80;;;;;;2472224;55;21008;-86
2021/08/20 05:10:37;;;;;;;2.00;0.90;;;21.30;66.00;;;;;;2473338;55;20982;-89
2021/08/20 05:13:05;;;;;;;1.98;0.90;;;21.30;66.00;;;;;;2267606;55;20997;-86
2021/08/20 05:15:31;;;;;;;1.87;0.88;;;21.20;66.00;;;;;;2265614;55;21038;-88
2021/08/20 05:17:58;;;;;;;2.05;0.90;;;21.30;66.20;;;;;;2241493;55;20951;-88
2021/08/20 05:20:24;;;;;;;1.83;0.80;;;21.30;66.20;;;;;;2461329;55;21029;-86
2021/08/20 05:22:52;;;;;;;4.22;1.00;;;21.30;66.20;;;;;;2271180;55;20981;-85
2021/08/20 05:25:19;;;;;;;2.20;0.90;;;21.30;66.40;;;;;;2258526;55;21066;-85
2021/08/20 05:27:46;;;;;;;2.97;1.20;;;21.40;66.30;;;;;;2468792;55;20964;-86
2021/08/20 05:30:12;;;;;;;1.85;0.88;;;21.40;66.40;;;;;;2269795;55;21074;-87
2021/08/20 05:32:38;;;;;;;1.62;0.73;;;21.40;66.30;;;;;;2485263;55;20990;-89
2021/08/20 05:35:07;;;;;;;2.33;1.02;;;21.40;66.30;;;;;;2248225;55;20995;-88
2021/08/20 05:37:33;;;;;;;2.53;1.12;;;21.40;66.40;;;;;;2267841;55;21053;-87
2021/08/20 05:39:59;;;;;;;2.25;0.90;;;21.40;66.40;;;;;;2492166;54;21021;-87
2021/08/20 05:42:26;;;;;;;2.85;1.00;;;21.50;66.50;;;;;;2467125;55;20948;-87
2021/08/20 05:44:53;;;;;;;3.17;1.48;;;21.50;66.60;;;;;;2461790;55;20977;-85
2021/08/20 05:47:19;;;;;;;3.08;1.35;;;21.50;66.60;;;;;;2268025;55;21511;-88
2021/08/20 05:49:46;;;;;;;2.50;1.00;;;21.50;66.60;;;;;;2461948;55;20940;-87
2021/08/20 05:52:12;;;;;;;2.75;1.25;;;21.60;66.70;;;;;;2263974;55;20989;-88
2021/08/20 05:54:38;;;;;;;3.78;1.55;;;21.60;66.70;;;;;;2476522;55;20989;-86
2021/08/20 05:57:05;;;;;;;2.67;1.33;;;21.60;66.70;;;;;;2483758;55;21526;-87
2021/08/20 05:59:31;;;;;;;2.90;1.30;;;21.70;66.70;;;;;;2240077;55;21458;-88
2021/08/20 06:01:57;;;;;;;4.35;1.60;;;21.70;66.60;;;;;;2461540;55;21024;-88
2021/08/20 06:04:24;;;;;;;2.65;1.25;;;21.80;66.70;;;;;;2461128;55;21051;-87
2021/08/20 06:06:50;;;;;;;3.25;1.58;;;21.80;66.70;;;;;;2239831;55;20909;-89
2021/08/20 06:09:17;;;;;;;3.90;1.98;;;21.80;66.70;;;;;;2252718;55;21059;-87
2021/08/20 06:11:43;;;;;;;3.85;2.30;;;21.90;66.70;;;;;;2482139;55;20980;-85
2021/08/20 06:14:09;;;;;;;4.62;2.08;;;21.90;66.60;;;;;;2262870;55;20958;-86
2021/08/20 06:16:36;;;;;;;3.10;1.67;;;22.00;66.60;;;;;;2246484;55;20995;-86
2021/08/20 06:19:02;;;;;;;5.25;1.80;;;22.00;66.40;;;;;;2462031;55;20973;-87
2021/08/20 06:21:28;;;;;;;3.08;1.85;;;22.10;66.40;;;;;;2240048;55;21472;-86
2021/08/20 06:23:55;;;;;;;3.72;2.03;;;22.10;66.40;;;;;;2240351;55;21044;-87
2021/08/20 06:26:21;;;;;;;3.15;1.70;;;22.10;66.30;;;;;;2461628;55;21362;-87
2021/08/20 06:28:48;;;;;;;3.87;2.25;;;22.20;66.30;;;;;;2246638;55;21275;-87
2021/08/20 06:31:14;;;;;;;4.00;2.00;;;22.20;66.10;;;;;;2265061;55;20972;-89
2021/08/20 06:33:41;;;;;;;5.18;2.10;;;22.20;66.00;;;;;;2240395;55;20924;-89
2021/08/20 06:36:07;;;;;;;3.30;1.90;;;22.30;66.00;;;;;;2461537;55;20988;-88
2021/08/20 06:38:33;;;;;;;3.30;1.77;;;22.30;66.00;;;;;;2272699;55;21018;-87
2021/08/20 06:40:59;;;;;;;3.20;1.60;;;22.30;65.90;;;;;;2465131;55;20989;-86
2021/08/20 06:43:26;;;;;;;4.05;1.70;;;22.30;65.80;;;;;;2490023;55;21002;-86
2021/08/20 06:45:53;;;;;;;3.40;2.00;;;22.40;66.30;;;;;;2463885;55;21024;-86
2021/08/20 06:48:20;;;;;;;3.80;2.17;;;22.40;65.80;;;;;;2239199;55;20995;-87
2021/08/20 06:50:46;;;;;;;3.83;1.80;;;22.40;65.80;;;;;;2239075;55;20972;-86
2021/08/20 06:53:12;;;;;;;5.35;2.00;;;22.40;65.80;;;;;;2257355;55;21078;-86
2021/08/20 06:55:39;;;;;;;4.25;1.98;;;22.50;65.80;;;;;;2249679;55;21539;-88
2021/08/20 06:58:05;;;;;;;4.30;1.98;;;22.50;65.80;;;;;;2239247;55;20988;-87
2021/08/20 07:00:31;;;;;;;4.75;2.17;;;22.50;65.60;;;;;;2461624;55;20941;-86
2021/08/20 07:02:58;;;;;;;5.20;2.00;;;22.50;65.70;;;;;;2461145;55;20944;-88
2021/08/20 07:05:25;;;;;;;2.75;1.60;;;22.60;65.80;;;;;;2239640;55;21021;-87
2021/08/20 07:07:52;;;;;;;3.40;1.80;;;22.60;65.70;;;;;;2239073;55;20944;-90
2021/08/20 07:10:18;;;;;;;3.00;1.58;;;22.60;65.80;;;;;;2239601;55;20960;-86
2021/08/20 07:12:45;;;;;;;4.20;2.10;;;22.70;66.60;;;;;;2250695;55;21053;-89
2021/08/20 07:15:12;;;;;;;3.17;1.70;;;22.70;66.20;;;;;;2484496;55;20937;-87
2021/08/20 07:17:39;;;;;;;3.28;1.95;;;22.80;66.10;;;;;;2240437;55;21004;-86
2021/08/20 07:20:05;;;;;;;4.37;2.33;;;22.80;66.00;;;;;;2466473;55;21011;-88
2021/08/20 07:22:32;;;;;;;3.20;1.77;;;22.90;65.80;;;;;;2462059;55;20947;-86
2021/08/20 07:24:58;;;;;;;3.92;2.00;;;23.00;65.90;;;;;;2239429;55;20975;-90
2021/08/20 07:27:25;;;;;;;3.15;1.70;;;23.00;65.90;;;;;;2494220;55;21644;-88
2021/08/20 07:29:51;;;;;;;3.65;2.10;;;23.10;65.90;;;;;;2463676;55;20996;-86
2021/08/20 07:32:19;;;;;;;5.20;1.67;;;23.10;65.80;;;;;;2254914;55;21010;-88
2021/08/20 07:34:45;;;;;;;3.20;1.73;;;23.20;66.00;;;;;;2269856;55;21020;-86
2021/08/20 07:37:11;;;;;;;3.37;2.00;;;23.20;66.80;;;;;;2492624;55;20977;-88
2021/08/20 07:39:38;;;;;;;3.70;1.80;;;23.30;66.10;;;;;;2490204;55;20939;-88
2021/08/20 07:42:05;;;;;;;3.92;2.00;;;23.40;66.20;;;;;;2247375;55;20969;-89
2021/08/20 07:44:32;;;;;;;4.47;1.80;;;23.40;66.20;;;;;;2486031;55;21384;-87
2021/08/20 07:46:59;;;;;;;3.20;1.98;;;23.50;66.20;;;;;;2493188;54;21034;-87
2021/08/20 07:49:25;;;;;;;3.37;1.90;;;23.60;66.10;;;;;;2493572;55;21828;-87
2021/08/20 07:51:52;;;;;;;3.90;2.20;;;23.70;65.90;;;;;;2461305;55;20955;-88
2021/08/20 07:54:18;;;;;;;4.37;1.85;;;23.80;65.60;;;;;;2261889;55;21026;-86
2021/08/20 07:56:45;;;;;;;3.37;1.75;;;23.90;65.40;;;;;;2243919;55;20988;-85
2021/08/20 07:59:11;;;;;;;3.80;1.75;;;23.90;65.00;;;;;;2466073;55;21026;-88
2021/08/20 08:01:37;;;;;;;3.20;1.77;;;24.00;64.80;;;;;;2485684;55;20993;-89
2021/08/20 08:04:04;;;;;;;3.33;1.80;;;24.10;64.70;;;;;;2492867;55;21368;-87
2021/08/20 08:06:31;;;;;;;3.08;1.80;;;24.20;64.60;;;;;;2271926;55;21420;-86
2021/08/20 08:08:58;;;;;;;3.42;1.87;;;24.20;64.30;;;;;;2495253;55;21053;-86
2021/08/20 08:11:30;;;;;;;3.60;1.92;;;24.30;64.10;;;;;;2463684;55;21349;-85
2021/08/20 08:14:03;;;;;;;3.12;1.70;;;24.30;64.00;;;;;;2462279;55;20941;-87
2021/08/20 08:16:35;;;;;;;2.45;1.35;;;24.40;64.10;;;;;;2239088;55;20956;-87
2021/08/20 08:19:02;;;;;;;3.65;1.80;;;24.40;63.20;;;;;;2488307;55;21074;-86
2021/08/20 08:21:28;;;;;;;3.47;1.62;;;24.40;63.50;;;;;;2469077;55;20988;-83
2021/08/20 08:23:56;;;;;;;3.00;1.75;;;24.50;63.60;;;;;;2259156;55;20996;-86
2021/08/20 08:26:23;;;;;;;3.12;1.60;;;24.50;63.30;;;;;;2459572;55;20948;-85
2021/08/20 08:28:52;;;;;;;3.20;1.80;;;24.60;63.20;;;;;;2461283;55;22101;-85
2021/08/20 08:31:19;;;;;;;3.00;1.60;;;24.60;63.60;;;;;;2237391;55;21060;-83
2021/08/20 08:33:45;;;;;;;2.97;1.80;;;24.60;62.70;;;;;;2446413;55;22028;-84
2021/08/20 08:36:11;;;;;;;3.20;2.00;;;24.70;62.60;;;;;;2483865;55;20988;-84
2021/08/20 08:38:38;;;;;;;2.85;1.62;;;24.70;62.70;;;;;;2463280;55;21060;-84
2021/08/20 08:41:04;;;;;;;3.42;1.60;;;24.80;62.90;;;;;;2484356;55;21091;-87
2021/08/20 08:43:31;;;;;;;3.65;2.05;;;24.80;62.90;;;;;;2458457;55;20972;-87
2021/08/20 08:46:01;;;;;;;3.95;1.90;;;24.90;62.80;;;;;;2459416;55;21084;-87
2021/08/20 08:48:27;;;;;;;3.33;1.77;;;24.90;62.20;;;;;;2489297;55;20974;-84
2021/08/20 08:50:54;;;;;;;3.10;1.80;;;25.00;62.20;;;;;;2458209;55;20992;-83
2021/08/20 08:53:20;;;;;;;3.85;1.95;;;25.00;62.00;;;;;;2237551;55;22033;-84
2021/08/20 08:55:56;;;;;;;3.22;1.52;;;25.10;61.90;;;;;;2266121;55;21002;-86
2021/08/20 08:58:23;;;;;;;4.40;1.80;;;25.10;61.70;;;;;;2475289;55;21618;-84
2021/08/20 09:00:49;;;;;;;2.90;1.67;;;25.20;61.50;;;;;;2489782;55;20977;-85
2021/08/20 09:03:26;;;;;;;3.03;1.55;;;25.20;61.30;;;;;;2250402;55;21007;-84
2021/08/20 09:05:53;;;;;;;4.90;1.62;;;25.20;60.60;;;;;;2457401;55;20983;-84
2021/08/20 09:08:21;;;;;;;3.30;1.80;;;25.20;61.20;;;;;;2467140;55;20955;-86
2021/08/20 09:10:54;;;;;;;3.80;2.00;;;25.30;61.00;;;;;;2237580;55;21019;-88
2021/08/20 09:13:22;;;;;;;3.60;2.12;;;25.30;60.50;;;;;;2458648;55;21051;-85
2021/08/20 09:16:04;;;;;;;3.30;1.60;;;25.30;60.80;;;;;;2477231;55;22112;-86
2021/08/20 09:18:31;;;;;;;3.30;1.65;;;25.50;60.20;;;;;;2241742;55;21019;-87
2021/08/20 09:20:57;;;;;;;5.47;1.80;;;25.40;60.70;;;;;;2458622;55;21036;-84
2021/08/20 09:23:24;;;;;;;3.78;1.80;;;25.50;61.00;;;;;;2238355;55;20991;-87
2021/08/20 09:25:52;;;;;;;3.10;1.70;;;25.60;60.90;;;;;;2238133;55;21004;-85
2021/08/20 09:28:29;;;;;;;3.72;1.90;;;25.60;60.80;;;;;;2460164;55;21380;-84
2021/08/20 09:31:00;;;;;;;3.55;2.00;;;25.70;60.20;;;;;;2460683;55;21018;-88
2021/08/20 09:33:31;;;;;;;4.05;1.75;;;25.70;60.20;;;;;;2447166;55;20964;-88
2021/08/20 09:36:11;;;;;;;3.80;1.85;;;25.70;60.20;;;;;;2439959;55;20992;-87
2021/08/20 09:38:40;;;;;;;3.42;1.80;;;25.80;59.50;;;;;;2479396;55;21473;-86
2021/08/20 09:41:12;;;;;;;3.87;2.17;;;25.80;60.00;;;;;;2476253;55;20965;-85
2021/08/20 09:43:40;;;;;;;3.58;1.80;;;25.90;60.00;;;;;;2255347;55;21392;-87
2021/08/20 09:46:11;;;;;;;3.92;1.92;;;25.90;60.00;;;;;;2478531;55;20997;-86
2021/08/20 09:49:56;;;;;;;2.83;1.65;;;25.90;59.70;;;;;;2478371;55;20987;-86
2021/08/20 09:52:29;;;;;;;2.92;1.58;;;26.00;59.40;;;;;;2491061;55;21062;-85
2021/08/20 09:54:56;;;;;;;3.37;1.90;;;26.00;59.50;;;;;;2253839;55;20914;-86
2021/08/20 09:57:26;;;;;;;3.62;1.85;;;26.10;59.70;;;;;;2480121;55;21008;-86
2021/08/20 09:59:54;;;;;;;4.28;1.70;;;26.10;59.50;;;;;;2473397;55;21022;-86
2021/08/20 10:02:26;;;;;;;3.40;1.67;;;26.10;59.40;;;;;;2477178;55;21716;-85
2021/08/20 10:04:57;;;;;;;2.95;1.70;;;26.20;59.30;;;;;;2465167;55;20979;-88
2021/08/20 10:07:26;;;;;;;3.60;1.70;;;26.20;59.00;;;;;;2258372;55;20964;-87
2021/08/20 10:09:54;;;;;;;3.87;1.70;;;26.20;59.00;;;;;;2460390;55;20952;-88
2021/08/20 10:12:21;;;;;;;3.92;1.55;;;26.30;59.00;;;;;;2460103;55;20980;-86
2021/08/20 10:14:49;;;;;;;3.25;1.60;;;26.30;58.90;;;;;;2485943;55;21867;-84
2021/08/20 10:17:16;;;;;;;3.83;2.10;;;26.30;59.30;;;;;;2241844;55;20988;-87
2021/08/20 10:19:48;;;;;;;4.05;1.75;;;26.30;58.60;;;;;;2460362;55;21431;-87
2021/08/20 10:22:15;;;;;;;3.03;1.65;;;26.40;58.60;;;;;;2460653;55;21064;-86
2021/08/20 10:24:41;;;;;;;3.15;1.60;;;26.40;58.70;;;;;;2460644;55;20956;-86
2021/08/20 10:27:07;;;;;;;3.25;1.70;;;26.40;58.60;;;;;;2477391;55;21108;-87
2021/08/20 10:29:36;;;;;;;3.00;1.75;;;26.40;58.40;;;;;;2452010;55;21947;-86
2021/08/20 10:32:04;;;;;;;3.67;1.98;;;26.50;58.30;;;;;;2459518;55;20956;-88
2021/08/20 10:34:34;;;;;;;3.85;1.70;;;26.50;58.20;;;;;;2247019;55;21009;-86
2021/08/20 10:37:26;;;;;;;3.15;1.55;;;26.60;57.80;;;;;;2262635;55;21252;-85
2021/08/20 10:39:54;;;;;;;2.97;1.75;;;26.60;57.60;;;;;;2239178;55;20976;-86
2021/08/20 10:42:43;;;;;;;3.55;1.73;;;26.70;57.90;;;;;;2459412;55;20996;-86
2021/08/20 10:45:11;;;;;;;4.00;1.50;;;26.70;57.80;;;;;;2260863;55;21042;-86
2021/08/20 10:47:37;;;;;;;2.42;1.37;;;26.70;57.90;;;;;;2444884;55;20992;-86
2021/08/20 10:50:22;;;;;;;2.90;1.40;;;26.80;58.10;;;;;;2459163;55;21032;-86
2021/08/20 10:52:49;;;;;;;3.33;1.48;;;26.90;57.20;;;;;;2237416;55;20996;-86
2021/08/20 10:55:29;;;;;;;2.85;1.55;;;26.90;57.70;;;;;;2458821;55;21047;-86
2021/08/20 10:58:00;;;;;;;3.72;1.35;;;27.00;57.30;;;;;;2478135;55;21093;-86
2021/08/20 11:00:27;;;;;;;2.75;1.40;;;27.00;57.50;;;;;;2253246;55;20963;-85
2021/08/20 11:02:59;;;;;;;2.15;1.17;;;27.10;57.50;;;;;;2486284;55;21008;-86
2021/08/20 11:08:03;;;;;;;2.75;1.35;;;27.20;57.20;;;;;;2266330;55;21030;-86
2021/08/20 11:10:32;;;;;;;3.30;1.40;;;27.30;57.80;;;;;;2460264;55;21869;-86
2021/08/20 11:13:01;;;;;;;2.53;1.27;;;27.40;57.30;;;;;;2486526;55;20966;-86
2021/08/20 11:15:41;;;;;;;3.08;1.70;;;27.40;56.80;;;;;;2481611;55;21472;-86
2021/08/20 11:18:07;;;;;;;2.85;1.58;;;27.50;56.00;;;;;;2468068;55;20985;-88
2021/08/20 11:20:45;;;;;;;2.50;1.35;;;27.50;56.20;;;;;;2459652;55;21003;-85
2021/08/20 11:23:16;;;;;;;2.70;1.10;;;27.50;56.10;;;;;;2452303;55;20990;-87
2021/08/20 11:25:58;;;;;;;2.37;1.37;;;27.60;55.80;;;;;;2451322;55;21111;-86
2021/08/20 11:28:42;;;;;;;3.35;1.60;;;27.50;55.50;;;;;;2477346;55;20994;-85
2021/08/20 11:31:12;;;;;;;2.90;1.48;;;27.60;55.10;;;;;;2481553;55;20951;-85
2021/08/20 11:33:39;;;;;;;2.50;1.30;;;27.60;55.70;;;;;;2474744;55;21055;-86
2021/08/20 11:36:13;;;;;;;4.07;1.25;;;27.60;55.90;;;;;;2492768;55;21122;-84
2021/08/20 11:38:44;;;;;;;2.40;1.17;;;27.70;55.80;;;;;;2488612;55;21040;-85
2021/08/20 11:41:22;;;;;;;2.80;1.23;;;27.70;56.00;;;;;;2459799;55;21710;-85
2021/08/20 11:43:55;;;;;;;2.53;1.30;;;27.80;55.60;;;;;;2474893;55;21026;-85
2021/08/20 11:46:23;;;;;;;2.55;1.30;;;27.80;55.30;;;;;;2253266;55;21530;-86
2021/08/20 11:48:54;;;;;;;2.42;1.40;;;27.90;55.50;;;;;;2490432;54;20984;-85
2021/08/20 11:51:32;;;;;;;3.80;1.60;;;27.90;55.00;;;;;;2463222;55;20949;-87
2021/08/20 11:54:13;;;;;;;3.05;1.23;;;27.90;54.90;;;;;;2266730;55;21260;-85
2021/08/20 11:56:50;;;;;;;2.40;1.10;;;28.00;55.30;;;;;;2461012;55;20980;-87
2021/08/20 11:59:16;;;;;;;2.87;1.40;;;28.00;54.40;;;;;;2239013;55;20986;-86
2021/08/20 12:01:42;;;;;;;2.50;1.12;;;28.10;55.10;;;;;;2474317;54;20928;-86
2021/08/20 12:04:25;;;;;;;2.70;1.25;;;28.10;54.60;;;;;;2459488;55;20976;-85
2021/08/20 12:06:51;;;;;;;3.05;1.50;;;28.10;54.20;;;;;;2458737;55;20945;-84
2021/08/20 12:09:18;;;;;;;2.62;1.25;;;28.10;54.10;;;;;;2474770;55;20999;-86
2021/08/20 12:11:51;;;;;;;2.40;1.02;;;28.10;53.60;;;;;;2258865;55;21058;-86
2021/08/20 12:14:28;;;;;;;5.35;1.20;;;28.20;52.90;;;;;;2456993;55;21052;-87
2021/08/20 12:16:55;;;;;;;2.17;1.10;;;28.20;53.50;;;;;;2237949;55;21348;-86
2021/08/20 12:19:23;;;;;;;2.25;1.00;;;28.20;53.30;;;;;;2482518;55;20943;-84
2021/08/20 12:22:37;;;;;;;2.67;1.25;;;28.30;52.90;;;;;;2465596;55;20964;-86
2021/08/20 12:25:18;;;;;;;2.33;1.23;;;28.30;51.60;;;;;;2265972;55;20969;-88
2021/08/20 12:27:46;;;;;;;2.80;1.08;;;28.30;52.00;;;;;;2459272;55;20944;-85
2021/08/20 12:30:14;;;;;;;2.40;1.17;;;28.40;52.70;;;;;;2237529;55;21000;-86
2021/08/20 12:33:00;;;;;;;3.33;1.30;;;28.40;52.60;;;;;;2489717;55;20990;-86
2021/08/20 12:35:27;;;;;;;2.28;1.10;;;28.50;51.50;;;;;;2459409;55;21752;-87
2021/08/20 12:38:05;;;;;;;2.60;1.35;;;28.50;52.60;;;;;;2237858;55;20937;-87
2021/08/20 12:40:42;;;;;;;2.87;1.30;;;28.60;52.10;;;;;;2461249;55;21481;-85
2021/08/20 12:43:37;;;;;;;2.72;1.20;;;28.60;51.60;;;;;;2484134;55;20948;-86
2021/08/20 12:46:32;;;;;;;3.12;1.20;;;28.60;50.80;;;;;;2490185;55;20950;-87
2021/08/20 12:49:00;;;;;;;2.30;1.27;;;28.70;50.60;;;;;;2248549;55;20994;-88
2021/08/20 12:51:27;;;;;;;2.70;1.23;;;28.70;51.80;;;;;;2254710;55;22118;-87
2021/08/20 12:54:04;;;;;;;2.47;1.10;;;28.70;52.30;;;;;;2439344;55;21949;-88
2021/08/20 12:56:38;;;;;;;2.87;1.30;;;28.80;51.00;;;;;;2238153;55;20944;-88
2021/08/20 12:59:06;;;;;;;3.17;1.40;;;28.90;51.80;;;;;;2461611;55;20976;-85